Time;durP1;ratioP1;P1;durP2;ratioP2;P2;SDS_P1;SDS_P2;PMS_P1;PMS_P2;Temp;Humidity;BMP_temperature;BMP_pressure;BME280_temperature;BME280_humidity;BME280_pressure;Samples;Min_cycle;Max_cycle;Signal;HPM_P1;HPM_P2
2023/06/06 00:00:43;;;;;;;9.52;5.63;;;;;;;;;;5012711;28;20064;-80
2023/06/06 00:03:11;;;;;;;11.23;5.22;;;;;;;;;;5013883;28;20072;-81
2023/06/06 00:05:38;;;;;;;10.18;5.78;;;;;;;;;;5012672;28;20149;-80
2023/06/06 00:08:05;;;;;;;10.10;4.78;;;;;;;;;;5011880;28;20421;-80
2023/06/06 00:10:32;;;;;;;8.50;5.30;;;;;;;;;;5012101;28;20125;-81
2023/06/06 00:13:01;;;;;;;10.73;5.55;;;;;;;;;;5011231;28;20112;-81
2023/06/06 00:15:28;;;;;;;10.00;5.90;;;;;;;;;;5011632;28;20041;-80
2023/06/06 00:17:55;;;;;;;9.25;5.85;;;;;;;;;;4997891;28;20046;-80
2023/06/06 00:20:22;;;;;;;9.43;5.68;;;;;;;;;;5015069;28;20371;-81
2023/06/06 00:22:53;;;;;;;12.05;5.85;;;;;;;;;;5012954;28;20049;-80
2023/06/06 00:25:20;;;;;;;13.88;5.72;;;;;;;;;;5013614;28;20077;-81
2023/06/06 00:27:49;;;;;;;12.52;6.22;;;;;;;;;;4996259;28;20041;-81
2023/06/06 00:30:16;;;;;;;12.30;5.93;;;;;;;;;;5003267;28;20046;-82
2023/06/06 00:32:44;;;;;;;10.82;6.40;;;;;;;;;;5024586;28;20049;-82
2023/06/06 00:35:11;;;;;;;12.25;6.05;;;;;;;;;;4999118;28;20176;-82
2023/06/06 00:37:38;;;;;;;12.15;6.97;;;;;;;;;;5015313;28;20058;-83
2023/06/06 00:40:07;;;;;;;11.13;6.45;;;;;;;;;;5012392;28;20042;-83
2023/06/06 00:42:34;;;;;;;12.57;6.80;;;;;;;;;;5011902;28;20041;-84
2023/06/06 00:45:01;;;;;;;12.60;6.65;;;;;;;;;;5012496;28;20512;-86
2023/06/06 00:47:28;;;;;;;11.32;6.72;;;;;;;;;;4995933;28;20040;-82
2023/06/06 00:49:55;;;;;;;13.02;7.28;;;;;;;;;;5013792;28;20049;-83
2023/06/06 00:52:23;;;;;;;13.50;7.20;;;;;;;;;;4997293;28;20045;-83
2023/06/06 00:54:50;;;;;;;11.52;7.07;;;;;;;;;;5013093;28;20071;-82
2023/06/06 00:57:18;;;;;;;11.60;7.15;;;;;;;;;;5013754;28;20077;-83
2023/06/06 00:59:45;;;;;;;13.23;6.95;;;;;;;;;;5013946;28;20042;-81
2023/06/06 01:02:17;;;;;;;11.32;6.90;;;;;;;;;;5002474;28;20149;-80
2023/06/06 01:04:44;;;;;;;13.23;7.40;;;;;;;;;;5014279;28;20069;-80
2023/06/06 01:07:12;;;;;;;12.18;7.28;;;;;;;;;;4996987;28;20061;-83
2023/06/06 01:09:39;;;;;;;15.23;7.45;;;;;;;;;;5015551;28;20410;-84
2023/06/06 01:12:15;;;;;;;10.88;7.00;;;;;;;;;;5000164;28;20081;-82
2023/06/06 01:14:51;;;;;;;9.65;7.05;;;;;;;;;;5014982;28;20049;-81
2023/06/06 01:17:19;;;;;;;12.60;7.25;;;;;;;;;;5015477;28;20037;-82
2023/06/06 01:19:49;;;;;;;12.90;7.60;;;;;;;;;;5015445;28;20038;-83
2023/06/06 01:22:17;;;;;;;11.70;6.65;;;;;;;;;;5027430;28;20129;-84
2023/06/06 01:24:47;;;;;;;10.10;6.65;;;;;;;;;;5020371;28;20125;-85
2023/06/06 01:27:14;;;;;;;13.18;6.38;;;;;;;;;;5008278;28;20098;-86
2023/06/06 01:30:04;;;;;;;8.85;6.00;;;;;;;;;;4975322;28;20055;-84
2023/06/06 01:32:44;;;;;;;11.20;6.75;;;;;;;;;;4982262;28;20046;-83
2023/06/06 01:35:53;;;;;;;10.40;6.60;;;;;;;;;;5007445;28;20045;-87
2023/06/06 01:38:22;;;;;;;9.77;6.35;;;;;;;;;;5012293;28;20073;-82
2023/06/06 01:41:06;;;;;;;10.93;6.00;;;;;;;;;;5018667;28;20046;-84
2023/06/06 01:43:50;;;;;;;12.45;6.30;;;;;;;;;;5004669;28;20042;-84
2023/06/06 01:46:21;;;;;;;13.15;7.22;;;;;;;;;;5002664;28;20058;-84
2023/06/06 01:48:48;;;;;;;10.52;6.43;;;;;;;;;;4991963;28;20065;-83
2023/06/06 01:51:24;;;;;;;10.02;6.35;;;;;;;;;;4987801;28;20056;-82
2023/06/06 01:53:59;;;;;;;12.20;6.60;;;;;;;;;;4990527;28;20042;-84
2023/06/06 01:56:27;;;;;;;11.00;6.13;;;;;;;;;;4998074;28;20038;-83
2023/06/06 01:58:54;;;;;;;14.20;6.60;;;;;;;;;;5014037;28;20045;-84
2023/06/06 02:01:21;;;;;;;11.23;6.50;;;;;;;;;;5015176;28;20105;-85
2023/06/06 02:03:48;;;;;;;13.30;6.68;;;;;;;;;;5032345;28;20277;-84
2023/06/06 02:06:15;;;;;;;12.60;6.53;;;;;;;;;;5034002;28;20037;-84
2023/06/06 02:08:42;;;;;;;14.85;6.63;;;;;;;;;;5033208;28;20037;-86
2023/06/06 02:11:08;;;;;;;10.60;5.90;;;;;;;;;;5032900;28;20045;-85
2023/06/06 02:13:36;;;;;;;8.70;5.97;;;;;;;;;;5033156;28;20087;-85
2023/06/06 02:16:03;;;;;;;11.35;6.70;;;;;;;;;;5032613;28;20088;-85
2023/06/06 02:18:30;;;;;;;9.32;5.93;;;;;;;;;;5033983;28;20632;-87
2023/06/06 02:20:58;;;;;;;10.48;5.55;;;;;;;;;;5035138;28;20565;-84
2023/06/06 02:23:25;;;;;;;10.18;6.15;;;;;;;;;;5034884;28;20056;-84
2023/06/06 02:25:53;;;;;;;8.85;5.57;;;;;;;;;;5034452;28;20057;-84
2023/06/06 02:28:20;;;;;;;11.55;6.43;;;;;;;;;;5033985;28;20494;-85
2023/06/06 02:30:47;;;;;;;10.68;5.80;;;;;;;;;;5026173;28;20071;-84
2023/06/06 02:33:16;;;;;;;9.85;5.68;;;;;;;;;;5033958;28;20708;-86
2023/06/06 02:35:46;;;;;;;12.07;6.15;;;;;;;;;;5017915;28;20041;-85
2023/06/06 02:38:12;;;;;;;11.60;5.97;;;;;;;;;;5011610;28;20050;-85
2023/06/06 02:40:42;;;;;;;9.63;5.82;;;;;;;;;;4991786;28;20048;-86
2023/06/06 02:43:09;;;;;;;11.82;6.55;;;;;;;;;;5039100;28;20049;-82
2023/06/06 02:45:35;;;;;;;13.15;6.03;;;;;;;;;;5020626;28;20529;-85
2023/06/06 02:48:02;;;;;;;13.57;6.28;;;;;;;;;;5023066;28;20076;-84
2023/06/06 02:50:31;;;;;;;10.55;5.90;;;;;;;;;;5008019;28;20129;-83
2023/06/06 02:53:03;;;;;;;13.07;6.25;;;;;;;;;;5011964;28;20042;-85
2023/06/06 02:55:30;;;;;;;15.93;6.70;;;;;;;;;;5015357;28;20100;-86
2023/06/06 02:57:57;;;;;;;12.98;6.30;;;;;;;;;;4986121;28;20057;-86
2023/06/06 03:00:24;;;;;;;10.82;6.25;;;;;;;;;;4990226;28;20047;-87
2023/06/06 03:02:53;;;;;;;10.15;6.28;;;;;;;;;;5006174;28;20053;-84
2023/06/06 03:05:28;;;;;;;12.13;6.47;;;;;;;;;;4984235;28;20062;-85
2023/06/06 03:07:57;;;;;;;9.65;6.80;;;;;;;;;;4995684;28;20067;-83
2023/06/06 03:10:27;;;;;;;13.38;7.00;;;;;;;;;;5012848;28;20049;-85
2023/06/06 03:12:55;;;;;;;16.17;6.53;;;;;;;;;;4997272;28;20100;-84
2023/06/06 03:15:25;;;;;;;11.27;6.95;;;;;;;;;;5011819;28;21097;-84
2023/06/06 03:17:52;;;;;;;10.93;6.90;;;;;;;;;;5016772;28;20129;-85
2023/06/06 03:20:23;;;;;;;11.07;7.10;;;;;;;;;;5023750;28;20109;-85
2023/06/06 03:22:59;;;;;;;11.45;6.97;;;;;;;;;;5024771;28;20037;-84
2023/06/06 03:25:26;;;;;;;10.85;6.47;;;;;;;;;;5005031;28;20094;-85
2023/06/06 03:27:53;;;;;;;16.17;6.65;;;;;;;;;;4997429;28;20124;-85
2023/06/06 03:30:23;;;;;;;12.35;7.07;;;;;;;;;;5022968;28;20030;-84
2023/06/06 03:32:50;;;;;;;13.93;6.10;;;;;;;;;;4996634;28;20042;-84
2023/06/06 03:35:31;;;;;;;12.88;6.90;;;;;;;;;;4993153;28;20038;-83
2023/06/06 03:38:12;;;;;;;11.93;6.63;;;;;;;;;;4990820;28;20038;-84
2023/06/06 03:40:46;;;;;;;12.45;6.57;;;;;;;;;;5012357;28;20038;-82
2023/06/06 03:43:16;;;;;;;13.35;6.75;;;;;;;;;;5005308;28;20045;-85
2023/06/06 03:45:48;;;;;;;16.52;7.03;;;;;;;;;;5012915;28;20075;-84
2023/06/06 03:48:28;;;;;;;;;;;;;;;;;;;;;
2023/06/06 03:51:04;;;;;;;11.90;6.95;;;;;;;;;;4979127;28;20590;-86
2023/06/06 03:53:45;;;;;;;11.65;6.55;;;;;;;;;;4985021;28;20041;-85
2023/06/06 03:56:47;;;;;;;11.15;6.68;;;;;;;;;;5008579;28;21461;-83
2023/06/06 04:00:23;;;;;;;12.60;6.38;;;;;;;;;;4955226;28;20110;-83
2023/06/06 04:03:36;;;;;;;12.25;6.45;;;;;;;;;;4955214;28;20506;-85
2023/06/06 04:06:40;;;;;;;11.13;6.50;;;;;;;;;;4963391;28;20571;-82
2023/06/06 04:09:20;;;;;;;10.57;6.47;;;;;;;;;;4995047;28;20414;-84
2023/06/06 04:11:48;;;;;;;12.07;6.47;;;;;;;;;;5008011;28;20053;-82
2023/06/06 04:14:15;;;;;;;14.43;6.65;;;;;;;;;;4994823;28;20042;-84
2023/06/06 04:16:45;;;;;;;12.07;7.15;;;;;;;;;;4986029;28;20048;-83
2023/06/06 04:19:11;;;;;;;10.98;7.05;;;;;;;;;;4990025;28;20138;-83
2023/06/06 04:21:38;;;;;;;11.02;7.13;;;;;;;;;;4989336;28;20046;-83
2023/06/06 04:24:11;;;;;;;17.92;7.05;;;;;;;;;;5005217;28;20418;-83
2023/06/06 04:27:10;;;;;;;12.15;7.43;;;;;;;;;;4958255;28;20052;-84
2023/06/06 04:29:50;;;;;;;13.10;7.47;;;;;;;;;;4987447;28;20078;-87
2023/06/06 04:32:20;;;;;;;12.38;7.35;;;;;;;;;;4985510;28;20053;-83
2023/06/06 04:34:57;;;;;;;12.52;7.32;;;;;;;;;;5003144;28;20503;-84
2023/06/06 04:37:39;;;;;;;10.82;6.82;;;;;;;;;;4978094;28;20477;-85
2023/06/06 04:40:10;;;;;;;12.77;7.95;;;;;;;;;;4954417;28;20043;-85
2023/06/06 04:42:43;;;;;;;13.73;7.63;;;;;;;;;;4987186;28;20046;-85
2023/06/06 04:45:12;;;;;;;12.35;8.15;;;;;;;;;;4988314;28;20126;-84
2023/06/06 04:47:48;;;;;;;13.35;8.27;;;;;;;;;;4987404;28;20172;-83
2023/06/06 04:50:23;;;;;;;14.02;7.93;;;;;;;;;;5008667;28;20045;-83
2023/06/06 04:53:03;;;;;;;14.48;7.72;;;;;;;;;;5001119;28;20410;-83
2023/06/06 04:55:30;;;;;;;19.67;8.43;;;;;;;;;;4957700;28;20062;-81
2023/06/06 04:57:58;;;;;;;14.32;8.73;;;;;;;;;;4978146;28;20051;-81
2023/06/06 05:00:25;;;;;;;13.32;8.45;;;;;;;;;;4962498;28;20494;-83
2023/06/06 05:02:54;;;;;;;13.48;8.27;;;;;;;;;;4990029;28;20047;-84
2023/06/06 05:05:21;;;;;;;13.90;8.82;;;;;;;;;;4970792;28;20051;-81
2023/06/06 05:07:48;;;;;;;13.30;8.20;;;;;;;;;;4960689;28;20066;-81
2023/06/06 05:10:15;;;;;;;17.08;8.60;;;;;;;;;;4958643;28;20042;-81
2023/06/06 05:12:42;;;;;;;13.35;8.43;;;;;;;;;;4958703;28;20054;-81
2023/06/06 05:15:08;;;;;;;12.68;8.90;;;;;;;;;;4940642;28;20043;-83
2023/06/06 05:17:38;;;;;;;16.15;10.18;;;;;;;;;;4974414;28;20062;-81
2023/06/06 05:20:10;;;;;;;14.73;8.77;;;;;;;;;;4993458;28;20068;-82
2023/06/06 05:22:37;;;;;;;14.63;9.00;;;;;;;;;;4993894;28;24543;-81
2023/06/06 05:25:04;;;;;;;17.05;9.07;;;;;;;;;;4971279;28;20115;-82
2023/06/06 05:27:30;;;;;;;16.23;9.20;;;;;;;;;;4960283;28;20057;-84
2023/06/06 05:29:57;;;;;;;15.50;9.07;;;;;;;;;;4969342;28;20166;-80
2023/06/06 05:32:26;;;;;;;15.55;9.00;;;;;;;;;;4971253;28;20039;-82
2023/06/06 05:34:53;;;;;;;15.75;9.15;;;;;;;;;;4949429;28;20054;-80
2023/06/06 05:37:19;;;;;;;15.35;9.60;;;;;;;;;;4972875;28;20273;-82
2023/06/06 05:39:46;;;;;;;18.38;9.48;;;;;;;;;;4953309;28;20047;-83
2023/06/06 05:42:13;;;;;;;15.30;9.80;;;;;;;;;;4969348;28;20113;-82
2023/06/06 05:44:41;;;;;;;14.60;9.85;;;;;;;;;;4950871;28;20463;-82
2023/06/06 05:47:08;;;;;;;13.57;9.60;;;;;;;;;;4969123;28;20661;-80
2023/06/06 05:49:35;;;;;;;13.95;9.20;;;;;;;;;;4971036;28;20106;-83
2023/06/06 05:52:02;;;;;;;14.98;10.38;;;;;;;;;;4969139;28;20507;-80
2023/06/06 05:54:29;;;;;;;15.50;10.13;;;;;;;;;;4969725;28;20297;-81
2023/06/06 05:57:21;;;;;;;14.97;10.33;;;;;;;;;;4969920;28;20042;-82
2023/06/06 05:59:48;;;;;;;15.77;9.75;;;;;;;;;;4975276;28;20472;-81
2023/06/06 06:02:14;;;;;;;13.07;8.90;;;;;;;;;;4957458;28;20504;-82
2023/06/06 06:04:42;;;;;;;18.13;9.70;;;;;;;;;;4965521;28;20054;-85
2023/06/06 06:07:09;;;;;;;12.02;9.13;;;;;;;;;;4952447;28;20051;-84
2023/06/06 06:09:36;;;;;;;14.10;9.05;;;;;;;;;;4966939;28;20669;-84
2023/06/06 06:12:02;;;;;;;12.88;8.73;;;;;;;;;;4981281;28;20055;-83
2023/06/06 06:14:29;;;;;;;13.77;8.45;;;;;;;;;;4949565;28;20063;-85
2023/06/06 06:16:56;;;;;;;14.02;9.07;;;;;;;;;;4953417;28;20050;-80
2023/06/06 06:19:23;;;;;;;14.18;9.35;;;;;;;;;;4943262;28;20457;-81
2023/06/06 06:21:51;;;;;;;14.18;9.23;;;;;;;;;;4967183;28;20150;-83
2023/06/06 06:24:18;;;;;;;14.32;9.60;;;;;;;;;;4966122;28;20077;-83
2023/06/06 06:26:45;;;;;;;14.38;9.68;;;;;;;;;;4967271;28;20145;-81
2023/06/06 06:29:20;;;;;;;14.57;9.48;;;;;;;;;;4927502;28;20719;-83
2023/06/06 06:31:55;;;;;;;15.70;9.80;;;;;;;;;;4939992;28;20070;-81
2023/06/06 06:34:21;;;;;;;12.82;8.90;;;;;;;;;;4963881;28;20102;-81
2023/06/06 06:36:48;;;;;;;13.85;9.48;;;;;;;;;;4967335;28;20039;-83
2023/06/06 06:39:18;;;;;;;11.10;8.32;;;;;;;;;;4964670;28;20066;-84
2023/06/06 06:41:45;;;;;;;11.20;8.38;;;;;;;;;;4942538;28;20039;-81
2023/06/06 06:44:12;;;;;;;12.38;7.70;;;;;;;;;;4966289;28;20046;-82
2023/06/06 06:46:39;;;;;;;11.18;7.18;;;;;;;;;;4967156;28;20514;-80
2023/06/06 06:49:13;;;;;;;10.55;6.97;;;;;;;;;;4960086;28;20058;-85
2023/06/06 06:51:43;;;;;;;9.93;6.90;;;;;;;;;;4956691;28;20078;-82
2023/06/06 06:54:16;;;;;;;10.27;7.82;;;;;;;;;;4966278;28;20081;-83
2023/06/06 06:56:42;;;;;;;10.95;8.50;;;;;;;;;;4954193;28;20058;-81
2023/06/06 06:59:09;;;;;;;11.63;9.13;;;;;;;;;;4985901;28;20036;-82
2023/06/06 07:01:39;;;;;;;13.55;10.13;;;;;;;;;;4984581;28;20061;-84
2023/06/06 07:04:06;;;;;;;13.20;9.48;;;;;;;;;;4970269;28;20086;-85
2023/06/06 07:06:33;;;;;;;15.13;10.70;;;;;;;;;;4949725;28;20074;-83
2023/06/06 07:09:00;;;;;;;14.45;10.70;;;;;;;;;;4969468;28;20133;-84
2023/06/06 07:11:27;;;;;;;15.98;11.05;;;;;;;;;;4970965;28;20043;-81
2023/06/06 07:13:55;;;;;;;13.95;10.57;;;;;;;;;;4962319;28;20039;-78
2023/06/06 07:16:23;;;;;;;19.20;11.80;;;;;;;;;;4975441;28;20447;-81
2023/06/06 07:18:51;;;;;;;16.92;11.40;;;;;;;;;;4954672;28;20065;-84
2023/06/06 07:21:21;;;;;;;20.30;11.77;;;;;;;;;;4956336;28;20137;-84
2023/06/06 07:23:48;;;;;;;18.13;12.55;;;;;;;;;;4952257;28;20046;-82
2023/06/06 07:26:16;;;;;;;20.90;13.80;;;;;;;;;;4949199;28;20566;-82
2023/06/06 07:28:43;;;;;;;21.50;14.57;;;;;;;;;;4948824;28;20109;-83
2023/06/06 07:31:10;;;;;;;20.35;13.25;;;;;;;;;;4966852;28;20132;-84
2023/06/06 07:33:37;;;;;;;16.77;13.73;;;;;;;;;;4973685;28;20071;-82
2023/06/06 07:36:04;;;;;;;19.02;13.13;;;;;;;;;;4958730;28;20047;-82
2023/06/06 07:38:31;;;;;;;17.80;11.77;;;;;;;;;;4969280;28;20055;-81
2023/06/06 07:40:58;;;;;;;15.23;11.30;;;;;;;;;;4964956;28;20415;-82
2023/06/06 07:43:25;;;;;;;17.90;11.65;;;;;;;;;;4964680;28;20141;-82
2023/06/06 07:45:51;;;;;;;14.52;11.10;;;;;;;;;;4948437;28;20142;-80
2023/06/06 07:48:18;;;;;;;14.70;10.98;;;;;;;;;;4964722;28;20055;-84
2023/06/06 07:50:45;;;;;;;18.30;10.88;;;;;;;;;;4945436;28;20069;-83
2023/06/06 07:53:11;;;;;;;15.48;10.55;;;;;;;;;;4945777;28;20086;-83
2023/06/06 07:55:38;;;;;;;13.40;10.07;;;;;;;;;;4944657;28;20045;-83
2023/06/06 07:58:10;;;;;;;14.73;10.40;;;;;;;;;;4942786;28;20062;-83
2023/06/06 08:00:37;;;;;;;14.40;10.00;;;;;;;;;;4951661;28;20309;-83
2023/06/06 08:03:03;;;;;;;17.95;11.63;;;;;;;;;;4962435;28;20121;-81
2023/06/06 08:05:34;;;;;;;16.65;10.90;;;;;;;;;;4947899;28;20058;-81
2023/06/06 08:08:00;;;;;;;17.25;10.95;;;;;;;;;;4954056;28;20050;-82
2023/06/06 08:10:30;;;;;;;19.23;11.35;;;;;;;;;;4921399;28;20051;-83
2023/06/06 08:13:04;;;;;;;15.80;10.30;;;;;;;;;;4944762;28;20090;-83
2023/06/06 08:15:33;;;;;;;15.85;10.40;;;;;;;;;;4945053;28;20360;-84
2023/06/06 08:17:59;;;;;;;14.77;10.65;;;;;;;;;;4948102;28;20138;-83
2023/06/06 08:20:26;;;;;;;18.67;10.25;;;;;;;;;;4970806;28;20104;-82
2023/06/06 08:22:53;;;;;;;14.98;10.32;;;;;;;;;;4988289;28;20558;-83
2023/06/06 08:25:20;;;;;;;14.35;10.38;;;;;;;;;;4989958;28;20050;-83
2023/06/06 08:27:46;;;;;;;16.92;11.02;;;;;;;;;;4988346;28;20104;-82
2023/06/06 08:30:13;;;;;;;15.82;11.50;;;;;;;;;;4958349;28;20094;-83
2023/06/06 08:32:43;;;;;;;14.32;11.38;;;;;;;;;;4957342;28;20053;-82
2023/06/06 08:35:10;;;;;;;16.00;10.93;;;;;;;;;;4992575;28;20046;-83
2023/06/06 08:37:37;;;;;;;17.25;12.07;;;;;;;;;;5007427;28;20051;-85
2023/06/06 08:40:04;;;;;;;17.90;12.32;;;;;;;;;;4993220;28;20066;-86
2023/06/06 08:42:32;;;;;;;18.27;12.63;;;;;;;;;;4976791;28;20054;-85
2023/06/06 08:44:59;;;;;;;17.17;11.90;;;;;;;;;;5000614;28;20798;-83
2023/06/06 08:47:27;;;;;;;17.33;12.63;;;;;;;;;;4996212;28;20141;-83
2023/06/06 08:49:54;;;;;;;19.92;13.02;;;;;;;;;;4959413;28;20141;-83
2023/06/06 08:52:23;;;;;;;20.13;13.93;;;;;;;;;;4984760;28;20105;-84
2023/06/06 08:54:50;;;;;;;20.08;13.70;;;;;;;;;;4977984;28;20553;-85
2023/06/06 08:57:19;;;;;;;21.77;14.98;;;;;;;;;;4977271;28;20074;-83
2023/06/06 08:59:46;;;;;;;21.00;15.00;;;;;;;;;;4972299;28;20464;-83
2023/06/06 09:02:13;;;;;;;24.35;14.68;;;;;;;;;;4990878;28;20054;-83
2023/06/06 09:04:42;;;;;;;24.67;16.00;;;;;;;;;;4990520;28;20050;-85
2023/06/06 09:07:13;;;;;;;22.10;15.48;;;;;;;;;;4994365;28;20057;-85
2023/06/06 09:09:45;;;;;;;24.27;15.68;;;;;;;;;;4993148;28;20462;-82
2023/06/06 09:12:12;;;;;;;22.50;14.73;;;;;;;;;;4992182;28;20062;-83
2023/06/06 09:14:38;;;;;;;21.02;14.88;;;;;;;;;;4977699;28;20054;-82
2023/06/06 09:17:05;;;;;;;20.90;13.60;;;;;;;;;;4993491;28;20069;-84
2023/06/06 09:19:32;;;;;;;18.38;14.52;;;;;;;;;;4994639;28;21250;-84
2023/06/06 09:21:59;;;;;;;19.20;14.45;;;;;;;;;;4994232;28;20054;-85
2023/06/06 09:24:28;;;;;;;20.70;14.02;;;;;;;;;;5002503;28;20073;-83
2023/06/06 09:26:55;;;;;;;19.65;14.15;;;;;;;;;;5004256;28;20057;-85
2023/06/06 09:29:24;;;;;;;19.33;14.18;;;;;;;;;;4992922;28;20650;-83
2023/06/06 09:31:51;;;;;;;22.15;14.95;;;;;;;;;;4986760;28;20117;-81
2023/06/06 09:34:23;;;;;;;19.75;14.82;;;;;;;;;;4970861;28;20437;-83
2023/06/06 09:36:51;;;;;;;16.08;13.15;;;;;;;;;;4987657;28;20446;-83
2023/06/06 09:39:18;;;;;;;17.55;12.90;;;;;;;;;;4970626;28;20050;-82
2023/06/06 09:41:46;;;;;;;18.20;12.50;;;;;;;;;;4968431;28;20062;-82
2023/06/06 09:44:17;;;;;;;19.27;12.75;;;;;;;;;;4988244;28;20135;-84
2023/06/06 09:46:44;;;;;;;18.60;12.45;;;;;;;;;;4988086;28;20130;-82
2023/06/06 09:49:12;;;;;;;17.48;12.45;;;;;;;;;;4949371;28;20078;-82
2023/06/06 09:51:40;;;;;;;18.95;12.93;;;;;;;;;;4966136;28;20162;-83
2023/06/06 09:54:07;;;;;;;17.02;12.63;;;;;;;;;;4980732;28;20462;-82
2023/06/06 09:56:38;;;;;;;17.25;12.13;;;;;;;;;;4998132;28;20248;-84
2023/06/06 09:59:06;;;;;;;18.50;13.73;;;;;;;;;;4993703;28;20312;-85
2023/06/06 10:01:33;;;;;;;19.23;14.45;;;;;;;;;;4987826;28;20099;-83
2023/06/06 10:04:03;;;;;;;19.83;14.85;;;;;;;;;;4969185;28;20050;-84
2023/06/06 10:06:33;;;;;;;20.38;15.27;;;;;;;;;;4984329;28;20034;-83
2023/06/06 10:09:02;;;;;;;21.92;16.17;;;;;;;;;;4969148;28;20138;-82
2023/06/06 10:11:29;;;;;;;20.58;15.63;;;;;;;;;;4968576;28;20050;-84
2023/06/06 10:13:56;;;;;;;20.92;15.38;;;;;;;;;;4990824;28;20061;-83
2023/06/06 10:16:25;;;;;;;20.65;15.95;;;;;;;;;;4968296;28;20057;-82
2023/06/06 10:18:56;;;;;;;19.20;15.20;;;;;;;;;;4985144;28;20052;-83
2023/06/06 10:21:27;;;;;;;20.75;15.82;;;;;;;;;;4985955;28;20130;-81
2023/06/06 10:23:54;;;;;;;23.92;16.10;;;;;;;;;;4985315;28;20074;-81
2023/06/06 10:26:25;;;;;;;21.95;15.45;;;;;;;;;;4989446;28;20402;-82
2023/06/06 10:28:57;;;;;;;22.85;15.15;;;;;;;;;;4987329;28;20623;-80
2023/06/06 10:31:40;;;;;;;19.92;14.70;;;;;;;;;;4968440;28;20137;-82
2023/06/06 10:34:10;;;;;;;21.52;14.30;;;;;;;;;;4986557;28;20649;-82
2023/06/06 10:36:38;;;;;;;17.55;13.38;;;;;;;;;;4986596;28;20349;-82
2023/06/06 10:39:24;;;;;;;18.48;12.77;;;;;;;;;;4969920;28;20046;-83
2023/06/06 10:41:52;;;;;;;16.73;12.88;;;;;;;;;;4968733;28;20050;-81
2023/06/06 10:44:20;;;;;;;20.05;13.05;;;;;;;;;;4986355;28;20132;-83
2023/06/06 10:46:50;;;;;;;18.17;12.60;;;;;;;;;;4986902;28;20054;-84
2023/06/06 10:49:17;;;;;;;16.77;12.77;;;;;;;;;;4968384;28;20072;-83
2023/06/06 10:51:44;;;;;;;17.35;13.52;;;;;;;;;;4968815;28;20062;-83
2023/06/06 10:54:17;;;;;;;25.02;15.77;;;;;;;;;;4985968;28;20277;-83
2023/06/06 10:56:45;;;;;;;18.85;14.80;;;;;;;;;;4987200;28;20438;-82
2023/06/06 10:59:12;;;;;;;20.58;15.70;;;;;;;;;;4984391;28;20089;-82
2023/06/06 11:01:44;;;;;;;21.80;15.50;;;;;;;;;;4986035;28;20100;-84
2023/06/06 11:04:21;;;;;;;21.30;17.00;;;;;;;;;;4982341;28;20129;-83
2023/06/06 11:06:49;;;;;;;23.88;17.10;;;;;;;;;;4986512;28;20046;-84
2023/06/06 11:09:28;;;;;;;25.33;18.38;;;;;;;;;;4986670;28;20054;-84
2023/06/06 11:12:12;;;;;;;22.25;17.05;;;;;;;;;;4966873;28;20429;-82
2023/06/06 11:14:56;;;;;;;24.50;18.40;;;;;;;;;;4985342;28;20118;-83
2023/06/06 11:17:27;;;;;;;23.40;18.02;;;;;;;;;;4968334;28;20042;-82
2023/06/06 11:19:56;;;;;;;23.88;18.17;;;;;;;;;;4984380;28;20501;-82
2023/06/06 11:22:25;;;;;;;28.92;19.50;;;;;;;;;;4953472;28;20053;-83
2023/06/06 11:24:55;;;;;;;27.33;20.23;;;;;;;;;;4968960;28;20077;-83
2023/06/06 11:27:21;;;;;;;27.73;20.30;;;;;;;;;;4986938;28;20260;-85
2023/06/06 11:29:52;;;;;;;26.70;20.52;;;;;;;;;;4953354;28;20699;-82
2023/06/06 11:32:18;;;;;;;28.50;21.02;;;;;;;;;;4971951;28;20038;-84
2023/06/06 11:34:45;;;;;;;26.15;19.55;;;;;;;;;;4979686;28;20388;-81
2023/06/06 11:37:12;;;;;;;28.90;19.50;;;;;;;;;;4995207;28;20132;-82
2023/06/06 11:39:39;;;;;;;26.92;19.98;;;;;;;;;;5006382;28;20054;-82
2023/06/06 11:42:06;;;;;;;28.45;20.67;;;;;;;;;;4977396;28;20038;-82
2023/06/06 11:44:35;;;;;;;27.80;20.30;;;;;;;;;;4994458;28;20077;-82
2023/06/06 11:47:03;;;;;;;28.25;20.67;;;;;;;;;;4989384;28;20088;-81
2023/06/06 11:49:42;;;;;;;36.38;19.98;;;;;;;;;;4977933;28;20240;-83
2023/06/06 11:52:10;;;;;;;27.83;19.90;;;;;;;;;;4979914;28;20049;-82
2023/06/06 11:54:37;;;;;;;26.52;18.77;;;;;;;;;;4988635;28;20069;-81
2023/06/06 11:57:05;;;;;;;24.38;18.77;;;;;;;;;;4978063;28;20204;-82
2023/06/06 11:59:34;;;;;;;24.17;18.00;;;;;;;;;;4967873;28;20120;-84
2023/06/06 12:02:01;;;;;;;25.67;17.85;;;;;;;;;;4959998;28;20063;-82
2023/06/06 12:04:28;;;;;;;20.10;16.73;;;;;;;;;;4986531;28;20174;-81
2023/06/06 12:06:56;;;;;;;25.63;17.05;;;;;;;;;;4985804;28;20522;-82
2023/06/06 12:09:26;;;;;;;21.75;15.90;;;;;;;;;;4970572;28;20042;-82
2023/06/06 12:11:54;;;;;;;20.73;15.05;;;;;;;;;;4975585;28;20143;-81
2023/06/06 12:14:28;;;;;;;22.55;15.43;;;;;;;;;;4987654;28;20104;-83
2023/06/06 12:17:04;;;;;;;19.23;14.90;;;;;;;;;;4987382;28;20107;-83
2023/06/06 12:19:31;;;;;;;18.80;15.57;;;;;;;;;;4986665;28;20505;-82
2023/06/06 12:21:58;;;;;;;18.33;14.98;;;;;;;;;;4979697;28;20133;-82
2023/06/06 12:24:26;;;;;;;20.10;15.85;;;;;;;;;;4989109;28;20109;-79
2023/06/06 12:26:55;;;;;;;19.70;14.90;;;;;;;;;;4985334;28;20866;-82
2023/06/06 12:29:26;;;;;;;20.60;15.10;;;;;;;;;;4967547;28;20050;-81
2023/06/06 12:32:21;;;;;;;18.98;15.75;;;;;;;;;;4977415;28;20049;-82
2023/06/06 12:34:59;;;;;;;21.50;15.75;;;;;;;;;;4980954;28;20102;-83
2023/06/06 12:37:35;;;;;;;15.52;11.68;;;;;;;;;;4983400;28;20137;-82
2023/06/06 12:40:08;;;;;;;15.95;11.65;;;;;;;;;;4977688;28;20051;-83
2023/06/06 12:42:35;;;;;;;16.50;12.18;;;;;;;;;;4985279;28;20177;-83
2023/06/06 12:45:02;;;;;;;13.88;10.98;;;;;;;;;;4967407;28;20129;-83
2023/06/06 12:47:28;;;;;;;14.20;10.57;;;;;;;;;;4962385;28;20391;-82
2023/06/06 12:49:55;;;;;;;15.38;10.93;;;;;;;;;;4983097;28;20443;-83
2023/06/06 12:52:22;;;;;;;14.88;11.30;;;;;;;;;;4952562;28;20061;-84
2023/06/06 12:54:49;;;;;;;15.82;12.13;;;;;;;;;;4984458;28;20050;-80
2023/06/06 12:57:15;;;;;;;15.50;10.85;;;;;;;;;;4986040;28;20047;-80
2023/06/06 12:59:44;;;;;;;15.52;11.80;;;;;;;;;;4969595;28;20057;-81
2023/06/06 13:02:11;;;;;;;12.63;10.38;;;;;;;;;;4967109;28;20034;-80
2023/06/06 13:04:39;;;;;;;12.60;9.90;;;;;;;;;;4986586;28;20070;-81
2023/06/06 13:07:06;;;;;;;17.17;11.10;;;;;;;;;;4989047;28;20042;-82
2023/06/06 13:09:34;;;;;;;17.55;11.20;;;;;;;;;;4970479;28;20439;-81
2023/06/06 13:12:01;;;;;;;16.67;12.05;;;;;;;;;;4969134;28;20054;-82
2023/06/06 13:14:28;;;;;;;17.88;12.23;;;;;;;;;;4970759;28;20137;-80
2023/06/06 13:16:55;;;;;;;16.98;12.05;;;;;;;;;;4971064;28;20054;-83
2023/06/06 13:19:32;;;;;;;15.07;11.05;;;;;;;;;;4991740;28;20090;-83
2023/06/06 13:21:59;;;;;;;19.80;11.32;;;;;;;;;;4971008;28;20410;-83
2023/06/06 13:24:25;;;;;;;20.80;11.77;;;;;;;;;;4973614;28;20042;-82
2023/06/06 13:26:53;;;;;;;17.98;10.82;;;;;;;;;;4990625;28;20061;-81
2023/06/06 13:29:20;;;;;;;15.80;10.60;;;;;;;;;;4988524;28;20489;-82
2023/06/06 13:31:47;;;;;;;16.40;10.75;;;;;;;;;;4988732;28;20419;-85
2023/06/06 13:34:13;;;;;;;14.60;10.90;;;;;;;;;;4987757;28;20439;-83
2023/06/06 13:36:40;;;;;;;15.52;11.38;;;;;;;;;;4990279;28;20284;-83
2023/06/06 13:39:07;;;;;;;18.73;12.80;;;;;;;;;;4992088;28;20062;-84
2023/06/06 13:41:35;;;;;;;15.18;12.45;;;;;;;;;;4994343;28;20042;-84
2023/06/06 13:44:02;;;;;;;17.67;12.57;;;;;;;;;;5015416;28;20041;-82
2023/06/06 13:46:30;;;;;;;19.63;12.90;;;;;;;;;;5023218;28;20088;-81
2023/06/06 13:49:08;;;;;;;17.50;11.80;;;;;;;;;;5018255;28;20046;-85
2023/06/06 13:51:35;;;;;;;14.95;11.07;;;;;;;;;;5011548;28;20097;-85
2023/06/06 13:54:02;;;;;;;15.23;11.23;;;;;;;;;;5009836;28;20054;-81
2023/06/06 13:56:29;;;;;;;18.17;11.63;;;;;;;;;;4975347;28;20047;-80
2023/06/06 13:58:55;;;;;;;16.52;11.45;;;;;;;;;;4990160;28;20054;-82
2023/06/06 14:01:35;;;;;;;;;;;;;;;;;;;;;
2023/06/06 14:04:53;;;;;;;16.40;10.93;;;;;;;;;;4971516;28;20042;-82
2023/06/06 14:07:20;;;;;;;17.30;10.88;;;;;;;;;;4971911;28;20042;-82
2023/06/06 14:09:47;;;;;;;16.88;11.18;;;;;;;;;;4975270;28;20082;-81
2023/06/06 14:12:14;;;;;;;16.10;11.27;;;;;;;;;;4977802;28;20046;-82
2023/06/06 14:14:41;;;;;;;13.18;10.20;;;;;;;;;;4995662;28;20058;-81
2023/06/06 14:17:35;;;;;;;16.63;11.02;;;;;;;;;;4996604;28;20138;-84
2023/06/06 14:20:02;;;;;;;17.27;10.55;;;;;;;;;;4972167;28;20046;-82
2023/06/06 14:22:34;;;;;;;15.02;10.15;;;;;;;;;;4990933;28;20069;-85
2023/06/06 14:25:00;;;;;;;14.27;9.50;;;;;;;;;;4991058;28;20046;-82
2023/06/06 14:27:28;;;;;;;15.60;9.35;;;;;;;;;;4991304;28;20046;-82
2023/06/06 14:29:55;;;;;;;18.75;9.70;;;;;;;;;;4968389;28;20814;-83
2023/06/06 14:32:30;;;;;;;11.27;9.48;;;;;;;;;;4971208;28;20058;-84
2023/06/06 14:35:00;;;;;;;16.88;10.63;;;;;;;;;;4970514;28;20050;-81
2023/06/06 14:37:27;;;;;;;15.65;10.57;;;;;;;;;;4990055;28;20038;-82
2023/06/06 14:39:55;;;;;;;14.45;9.38;;;;;;;;;;4954814;28;20519;-79
2023/06/06 14:42:22;;;;;;;18.90;9.65;;;;;;;;;;4984480;28;20154;-79